Wrangell, AK

1:39 PM AKST on February 14, 2016 (GMT -0900)
Wrangell | | Change Station
CLOSE
Current Station
Airport
Location: Wrangell,
Elevation: 43 ft
Nearby Weather Stations

Elev 43 ft 56.48 °N, 132.37 °W | Updated 3 minutes ago

Overcast
Overcast
39 °F
Feels Like 36 °F
N
5
Wind Variable Wind from NW

Today
High -- | Low -- °F
--% Chance of Precip.
Yesterday
High -- | Low -- °F
Precip. -- in
Pressure 29.51 in
Visibility 10.0 miles
Clouds Few 500 ft
Mostly Cloudy 4000 ft
Overcast 4500 ft
Windchill 36 °F
Dew Point 36 °F
Humidity 87%
Rainfall 0.08 in
Snow Depth Not available.
7:19 AM 4:49 PM
Waxing Crescent, 46% visible
METAR PAWG 142236Z 32004KT 10SM FEW005 BKN040 OVC045 04/02 A2951 RMK AO1 WEA: -RA (KB) P0003
Pressure 29.51 in
Visibility 10.0 miles
Clouds Few 500 ft
Mostly Cloudy 4000 ft
Overcast 4500 ft
Windchill 36 °F
Dew Point 36 °F
Humidity 87%
Rainfall 0.08 in
Snow Depth Not available.
7:19 AM 4:49 PM
Waxing Crescent, 46% visible
METAR PAWG 142236Z 32004KT 10SM FEW005 BKN040 OVC045 04/02 A2951 RMK AO1 WEA: -RA (KB) P0003

10-Day Weather Forecast

Almanac

Astronomy

Feb. 14, 2016 Rise Set
Actual Time
Civil Twilight
Nautical Twilight
Astronomical Twilight
Moon
Length of Visible Light
Length of Day
Tomorrow will be .
, % of the Moon is Illuminated

Today's Extremes

State Highs State Lows

Community

WunderPhotos

Upload Photos

1,892,899 photos uploaded!

WunderBlog® & News

Nearby

Air Quality

  Air Quality AQ Index Pollutant
Not available.

Snow Depth

Station Depth Elevation

Earthquake Activity

City Distance Mag. Time & Date
Minimum magnitude displayed is 2.5.

Coastal Water Temperatures

Place Temperature

Stations

Nearby Weather Stations

Station Location Temp. Windchill Dew Point Humidity Wind Precip. Elev Updated Type
                   

Watches & Warnings

There are currently no watches in effect.